Trelew, Argentina
Current Conditions -  °F | °C
As of 9:00 PM on Sunday 23 Nov 2014 (Local Time) from SAVC Reporting Station
Scattered Clouds Scattered Clouds  
Wind Chill: 13°   Ceiling: Unl
Heat Index: 13°   Visibility: 6mi
Dew Point:   Wind: 7mph
Humidity: 77%   Direction: 250°WSW
Pressure: 29.5"   Gusts: NA
Location:  43.25°S, 65.3°W
Report Text: SAVC 240000Z 25006KT 9999 FEW015 SCT03013/09 Q0999 RERA
Loading
Personal Weather Stations






























Interactive Weather Map New forecast layout! Learn more

10-Day Weather Forecast

Advertisements
Track Severe Weather on mobile